createdAt,value
2023-04-19T00:00:01.052Z,12.02
2023-04-19T00:02:30.392Z,13.48
2023-04-19T00:04:57.898Z,12.50
2023-04-19T00:07:25.578Z,13.80
2023-04-19T00:09:52.866Z,13.65
2023-04-19T00:12:20.064Z,12.93
2023-04-19T00:14:47.434Z,13.23
2023-04-19T00:17:14.779Z,13.93
2023-04-19T00:19:42.057Z,14.02
2023-04-19T00:22:09.262Z,13.93
2023-04-19T00:24:36.414Z,13.45
2023-04-19T00:27:04.012Z,13.30
2023-04-19T00:29:32.028Z,14.23
2023-04-19T00:31:59.490Z,14.65
2023-04-19T00:34:26.783Z,14.57
2023-04-19T00:36:57.193Z,15.02
2023-04-19T00:39:24.670Z,15.07
2023-04-19T00:41:53.071Z,13.88
2023-04-19T00:44:20.353Z,15.55
2023-04-19T00:46:48.067Z,15.15
2023-04-19T00:49:18.652Z,14.68
2023-04-19T00:51:47.548Z,16.10
2023-04-19T00:54:15.869Z,15.55
2023-04-19T00:56:45.390Z,14.75
2023-04-19T00:59:15.548Z,15.65
2023-04-19T01:01:42.931Z,14.55
2023-04-19T01:04:11.077Z,14.30
2023-04-19T01:06:40.364Z,13.23
2023-04-19T01:09:07.613Z,14.07
2023-04-19T01:11:34.903Z,13.02
2023-04-19T01:14:02.367Z,13.85
2023-04-19T01:16:29.845Z,13.90
2023-04-19T01:18:57.139Z,12.57
2023-04-19T01:21:24.482Z,12.50
2023-04-19T01:23:52.470Z,13.57
2023-04-19T01:26:19.682Z,12.40
2023-04-19T01:28:47.072Z,13.13
2023-04-19T01:31:14.371Z,13.05
2023-04-19T01:33:42.192Z,12.98
2023-04-19T01:36:11.064Z,13.40
2023-04-19T01:38:38.247Z,12.98
2023-04-19T01:41:05.594Z,12.27
2023-04-19T01:43:32.867Z,12.30
2023-04-19T01:46:00.052Z,12.40
2023-04-19T01:48:27.280Z,13.85
2023-04-19T01:50:54.461Z,13.15
2023-04-19T01:53:21.898Z,14.02
2023-04-19T01:55:50.705Z,14.32
2023-04-19T01:58:18.293Z,13.18
2023-04-19T02:00:46.286Z,14.32
2023-04-19T02:03:13.706Z,14.25
2023-04-19T02:05:43.076Z,14.30
2023-04-19T02:08:10.300Z,14.68
2023-04-19T02:10:37.516Z,13.98
2023-04-19T02:13:04.714Z,13.90
2023-04-19T02:15:32.114Z,14.00
2023-04-19T02:18:19.232Z,13.52
2023-04-19T02:20:46.510Z,12.48
2023-04-19T02:23:13.748Z,13.38
2023-04-19T02:25:41.073Z,12.02
2023-04-19T02:28:08.382Z,11.82
2023-04-19T02:30:37.103Z,12.38
2023-04-19T02:33:04.445Z,12.93
2023-04-19T02:35:31.851Z,12.88
2023-04-19T02:38:04.272Z,12.25
2023-04-19T02:40:31.803Z,11.98
2023-04-19T02:43:01.258Z,12.60
2023-04-19T02:45:28.371Z,13.00
2023-04-19T02:47:55.844Z,12.70
2023-04-19T02:50:23.760Z,12.30
2023-04-19T02:52:52.068Z,12.95
2023-04-19T02:55:21.236Z,13.10
2023-04-19T02:57:54.910Z,12.95
2023-04-19T03:00:22.308Z,14.07
2023-04-19T03:03:04.107Z,13.40
2023-04-19T03:05:33.236Z,12.77
2023-04-19T03:08:00.527Z,13.32
2023-04-19T03:10:27.999Z,13.57
2023-04-19T03:12:55.577Z,14.80
2023-04-19T03:15:23.146Z,13.95
2023-04-19T03:17:51.192Z,13.05
2023-04-19T03:20:22.012Z,14.95
2023-04-19T03:22:49.700Z,14.98
2023-04-19T03:25:17.699Z,15.63
2023-04-19T03:27:51.112Z,14.88
2023-04-19T03:30:23.675Z,15.77
2023-04-19T03:32:52.347Z,16.30
2023-04-19T03:35:22.422Z,15.63
2023-04-19T03:37:51.733Z,16.95
2023-04-19T03:40:19.257Z,16.67
2023-04-19T03:42:47.514Z,16.60
2023-04-19T03:45:27.418Z,16.60
2023-04-19T03:47:54.692Z,16.63
2023-04-19T03:50:22.302Z,16.00
2023-04-19T03:52:55.066Z,18.23
2023-04-19T03:55:22.844Z,17.67
2023-04-19T03:57:50.258Z,18.38
2023-04-19T04:00:23.575Z,18.85
2023-04-19T04:02:56.731Z,18.42
2023-04-19T04:05:24.643Z,18.95
2023-04-19T04:07:52.349Z,19.33
2023-04-19T04:10:19.841Z,19.95
2023-04-19T04:12:48.388Z,18.92
2023-04-19T04:15:23.437Z,18.80
2023-04-19T04:17:53.985Z,19.17
2023-04-19T04:20:21.729Z,17.83
2023-04-19T04:22:51.509Z,18.98
2023-04-19T04:25:23.013Z,19.70
2023-04-19T04:27:52.527Z,19.50
2023-04-19T04:30:22.346Z,18.65
2023-04-19T04:32:51.476Z,17.60
2023-04-19T04:35:19.581Z,18.33
2023-04-19T04:37:59.959Z,18.35
2023-04-19T04:40:27.928Z,17.38
2023-04-19T04:42:55.227Z,18.25
2023-04-19T04:45:23.289Z,18.33
2023-04-19T04:47:51.606Z,17.08
2023-04-19T04:50:19.705Z,16.85
2023-04-19T04:52:49.353Z,18.25
2023-04-19T04:55:21.644Z,17.35
2023-04-19T04:57:49.081Z,17.27
2023-04-19T05:00:25.893Z,16.60
2023-04-19T05:03:05.662Z,16.73
2023-04-19T05:05:37.755Z,15.65
2023-04-19T05:08:05.412Z,15.90
2023-04-19T05:10:32.817Z,15.10
2023-04-19T05:13:01.823Z,16.23
2023-04-19T05:15:30.881Z,15.77
2023-04-19T05:17:58.866Z,14.65
2023-04-19T05:20:27.205Z,14.40
2023-04-19T05:23:03.670Z,15.50
2023-04-19T05:25:33.926Z,14.07
2023-04-19T05:28:03.579Z,13.55
2023-04-19T05:30:38.334Z,14.23
2023-04-19T05:33:06.205Z,12.43
2023-04-19T05:35:33.548Z,13.05
2023-04-19T05:38:01.738Z,12.40
2023-04-19T05:40:29.806Z,12.60
2023-04-19T05:42:59.339Z,12.05
2023-04-19T05:45:27.270Z,11.68
2023-04-19T05:47:54.735Z,11.43
2023-04-19T05:50:58.130Z,10.82
2023-04-19T05:53:44.088Z,9.77
2023-04-19T05:56:11.754Z,9.90
2023-04-19T05:58:39.005Z,10.55
2023-04-19T06:01:06.975Z,10.77
2023-04-19T06:03:34.685Z,9.48
2023-04-19T06:06:02.353Z,10.38
2023-04-19T06:08:29.682Z,9.25
2023-04-19T06:11:02.073Z,10.02
2023-04-19T06:13:32.338Z,10.45
2023-04-19T06:15:59.958Z,9.40
2023-04-19T06:18:27.218Z,9.70
2023-04-19T06:20:54.601Z,8.88
2023-04-19T06:23:22.052Z,9.35
2023-04-19T06:25:49.610Z,9.30
2023-04-19T06:28:17.008Z,8.52
2023-04-19T06:30:44.561Z,7.63
2023-04-19T06:33:12.114Z,9.18
2023-04-19T06:35:39.327Z,7.90
2023-04-19T06:38:07.185Z,8.63
2023-04-19T06:40:35.318Z,8.00
2023-04-19T06:43:02.640Z,7.75
2023-04-19T06:45:33.364Z,7.50
2023-04-19T06:48:00.982Z,7.95
2023-04-19T06:50:29.449Z,8.23
2023-04-19T06:52:56.797Z,7.65
2023-04-19T06:55:24.093Z,7.45
2023-04-19T06:57:51.321Z,6.40
2023-04-19T07:00:18.856Z,7.28
2023-04-19T07:02:46.232Z,6.93
2023-04-19T07:05:13.605Z,6.05
2023-04-19T07:07:41.457Z,5.40
2023-04-19T07:10:09.647Z,5.80
2023-04-19T07:12:36.789Z,4.97
2023-04-19T07:15:04.605Z,5.30
2023-04-19T07:17:35.360Z,4.53
2023-04-19T07:20:04.610Z,4.80
2023-04-19T07:22:32.952Z,4.88
2023-04-19T07:25:00.272Z,5.00
2023-04-19T07:27:27.582Z,4.75
2023-04-19T07:29:54.764Z,4.57
2023-04-19T07:32:22.328Z,5.10
2023-04-19T07:34:51.647Z,4.88
2023-04-19T07:37:19.122Z,5.53
2023-04-19T07:39:46.361Z,4.50
2023-04-19T07:42:13.528Z,5.07
2023-04-19T07:44:40.983Z,4.35
2023-04-19T07:47:08.222Z,4.00
2023-04-19T07:49:35.675Z,4.20
2023-04-19T07:52:03.281Z,4.13
2023-04-19T07:54:32.294Z,3.95
2023-04-19T07:56:59.824Z,4.22
2023-04-19T07:59:27.159Z,4.30
2023-04-19T08:01:54.512Z,3.88
2023-04-19T08:04:23.373Z,4.43
2023-04-19T08:06:51.139Z,3.83
2023-04-19T08:09:18.499Z,4.32
2023-04-19T08:11:45.956Z,4.45
2023-04-19T08:14:28.281Z,5.30
2023-04-19T08:19:31.465Z,5.38
2023-04-19T08:21:58.685Z,5.28
2023-04-19T08:24:26.073Z,5.28
2023-04-19T08:26:54.379Z,5.80
2023-04-19T08:29:22.359Z,5.10
2023-04-19T08:31:50.008Z,5.45
2023-04-19T08:34:17.372Z,5.53
2023-04-19T08:36:55.889Z,5.07
2023-04-19T08:39:33.190Z,5.22
2023-04-19T08:42:28.203Z,5.40
2023-04-19T08:47:34.507Z,5.28
2023-04-19T08:50:20.367Z,4.93
2023-04-19T08:52:58.616Z,5.25
2023-04-19T08:55:31.064Z,5.03
2023-04-19T08:57:59.611Z,4.97
2023-04-19T09:00:28.719Z,4.65
2023-04-19T09:02:56.643Z,5.22
2023-04-19T09:05:24.374Z,4.95
2023-04-19T09:07:52.075Z,4.80
2023-04-19T09:10:21.716Z,4.32
2023-04-19T09:13:05.776Z,4.00
2023-04-19T09:15:41.948Z,4.10
2023-04-19T09:18:10.451Z,3.60
2023-04-19T09:20:39.966Z,4.05
2023-04-19T09:23:12.056Z,4.30
2023-04-19T09:28:34.717Z,4.45
2023-04-19T09:31:33.260Z,4.72
2023-04-19T09:34:18.200Z,4.57
2023-04-19T09:36:46.865Z,4.55
2023-04-19T09:39:15.193Z,5.32
2023-04-19T09:41:53.625Z,4.80
2023-04-19T09:45:01.733Z,4.97
2023-04-19T09:47:24.197Z,4.15
2023-04-19T09:50:22.736Z,4.07
2023-04-19T09:52:53.139Z,4.40
2023-04-19T09:57:52.859Z,3.92
2023-04-19T10:00:23.942Z,3.45
2023-04-19T10:02:58.682Z,3.40
2023-04-19T10:05:26.847Z,3.60
2023-04-19T10:07:59.958Z,4.38
2023-04-19T10:18:07.695Z,3.80
2023-04-19T10:21:04.152Z,3.67
2023-04-19T10:23:32.751Z,3.83
2023-04-19T10:25:59.974Z,3.40
2023-04-19T10:28:34.229Z,2.92
2023-04-19T10:31:04.237Z,2.72
2023-04-19T10:33:36.318Z,2.97
2023-04-19T10:36:05.035Z,2.83
2023-04-19T10:38:55.829Z,2.95
2023-04-19T10:41:23.320Z,2.50
2023-04-19T10:43:57.690Z,2.63
2023-04-19T10:46:26.178Z,3.92
2023-04-19T10:48:57.878Z,3.60
2023-04-19T10:51:33.540Z,4.03
2023-04-19T10:54:05.887Z,4.60
2023-04-19T10:56:33.426Z,3.60
2023-04-19T10:59:11.751Z,3.90
2023-04-19T11:01:55.398Z,3.25
2023-04-19T11:04:24.096Z,3.90
2023-04-19T11:06:54.053Z,3.80
2023-04-19T11:09:39.510Z,3.72
2023-04-19T11:12:12.115Z,3.45
2023-04-19T11:14:47.294Z,4.15
2023-04-19T11:17:27.138Z,4.68
2023-04-19T11:20:07.438Z,4.18
2023-04-19T11:22:38.316Z,4.30
2023-04-19T11:25:20.218Z,3.80
2023-04-19T11:27:52.315Z,3.10
2023-04-19T11:30:22.998Z,4.13
2023-04-19T11:32:52.573Z,4.32
2023-04-19T11:35:23.124Z,4.40
2023-04-19T11:37:51.591Z,4.38
2023-04-19T11:40:21.232Z,4.20
2023-04-19T11:42:56.765Z,3.70
2023-04-19T11:45:32.991Z,3.83
2023-04-19T11:48:04.529Z,4.07
2023-04-19T11:50:35.962Z,3.53
2023-04-19T11:53:14.631Z,4.13
2023-04-19T11:55:53.066Z,3.92
2023-04-19T11:58:50.353Z,3.33
2023-04-19T12:01:21.387Z,3.28
2023-04-19T12:03:56.845Z,3.67
2023-04-19T12:06:28.556Z,2.97
2023-04-19T12:08:59.677Z,3.20
2023-04-19T12:12:26.272Z,3.05
2023-04-19T12:14:54.934Z,2.63
2023-04-19T12:17:22.225Z,2.88
2023-04-19T12:19:52.521Z,2.70
2023-04-19T12:22:21.067Z,3.05
2023-04-19T12:24:51.980Z,3.42
2023-04-19T12:27:20.032Z,3.38
2023-04-19T12:29:47.318Z,3.67
2023-04-19T12:32:16.121Z,3.45
2023-04-19T12:34:44.286Z,3.03
2023-04-19T12:37:11.730Z,3.47
2023-04-19T12:39:39.079Z,2.85
2023-04-19T12:42:06.586Z,3.63
2023-04-19T12:44:34.346Z,3.35
2023-04-19T12:47:01.680Z,3.17
2023-04-19T12:49:28.940Z,3.45
2023-04-19T12:51:57.372Z,3.22
2023-04-19T12:54:24.961Z,3.38
2023-04-19T12:56:52.438Z,3.47
2023-04-19T12:59:19.863Z,3.35
2023-04-19T13:01:47.257Z,3.67
2023-04-19T13:04:18.061Z,3.55
2023-04-19T13:06:45.937Z,3.50
2023-04-19T13:09:14.951Z,3.53
2023-04-19T13:11:42.788Z,3.13
2023-04-19T13:14:10.117Z,3.10
2023-04-19T13:16:37.377Z,3.55
2023-04-19T13:19:04.994Z,3.80
2023-04-19T13:21:32.327Z,3.70
2023-04-19T13:23:59.766Z,3.88
2023-04-19T13:26:27.263Z,3.50
2023-04-19T13:29:13.306Z,3.30
2023-04-19T13:31:59.184Z,3.28
2023-04-19T13:34:46.064Z,4.07
2023-04-19T13:37:31.863Z,4.28
2023-04-19T13:40:19.609Z,4.50
2023-04-19T13:42:47.325Z,4.90
2023-04-19T13:45:14.680Z,5.10
2023-04-19T13:47:42.881Z,4.90
2023-04-19T13:50:10.637Z,4.78
2023-04-19T13:52:38.720Z,4.60
2023-04-19T13:55:06.892Z,4.38
2023-04-19T13:57:34.633Z,5.10
2023-04-19T14:00:02.261Z,5.18
2023-04-19T14:02:35.868Z,4.90
2023-04-19T14:05:04.660Z,4.80
2023-04-19T14:07:32.834Z,4.80
2023-04-19T14:10:00.335Z,4.68
2023-04-19T14:12:28.011Z,4.68
2023-04-19T14:14:55.542Z,4.57
2023-04-19T14:17:23.496Z,4.97
2023-04-19T14:19:51.192Z,5.70
2023-04-19T14:22:18.877Z,4.70
2023-04-19T14:24:46.629Z,4.85
2023-04-19T14:27:13.817Z,5.13
2023-04-19T14:29:41.108Z,5.28
2023-04-19T14:32:24.445Z,5.07
2023-04-19T14:34:54.918Z,5.60
2023-04-19T14:37:23.722Z,4.47
2023-04-19T14:39:50.989Z,5.10
2023-04-19T14:42:20.113Z,5.28
2023-04-19T14:44:51.612Z,5.80
2023-04-19T14:47:19.006Z,5.60
2023-04-19T14:49:46.531Z,5.22
2023-04-19T14:52:13.916Z,4.70
2023-04-19T14:54:41.886Z,5.30
2023-04-19T14:57:09.736Z,5.10
2023-04-19T14:59:37.197Z,5.00
2023-04-19T15:02:04.666Z,5.60
2023-04-19T15:04:37.423Z,5.70
2023-04-19T15:07:07.963Z,6.22
2023-04-19T15:09:35.204Z,5.70
2023-04-19T15:12:02.636Z,6.50
2023-04-19T15:14:29.915Z,7.63
2023-04-19T15:16:57.116Z,8.38
2023-04-19T15:19:24.263Z,8.40
2023-04-19T15:21:51.474Z,7.60
2023-04-19T15:24:19.031Z,6.40
2023-04-19T15:26:46.330Z,5.93
2023-04-19T15:29:13.788Z,6.63
2023-04-19T15:31:41.127Z,7.18
2023-04-19T15:34:08.434Z,6.20
2023-04-19T15:36:35.796Z,5.93
2023-04-19T15:39:03.531Z,5.53
2023-04-19T15:41:30.842Z,6.03
2023-04-19T15:43:58.398Z,6.43
2023-04-19T15:46:25.942Z,5.88
2023-04-19T15:48:53.558Z,6.00
2023-04-19T15:51:21.082Z,6.50
2023-04-19T15:53:48.190Z,6.10
2023-04-19T15:56:15.650Z,5.82
2023-04-19T15:58:44.046Z,6.10
2023-04-19T16:01:13.886Z,6.25
2023-04-19T16:03:41.960Z,6.22
2023-04-19T16:06:11.943Z,6.30
2023-04-19T16:08:42.225Z,5.82
2023-04-19T16:11:09.693Z,7.18
2023-04-19T16:13:36.992Z,7.13
2023-04-19T16:16:04.344Z,7.95
2023-04-19T16:18:31.564Z,8.18
2023-04-19T16:20:58.914Z,6.90
2023-04-19T16:23:26.352Z,7.60
2023-04-19T16:25:56.129Z,7.15
2023-04-19T16:28:24.091Z,5.97
2023-04-19T16:30:51.290Z,6.07
2023-04-19T16:33:18.573Z,5.78
2023-04-19T16:35:45.862Z,5.57
2023-04-19T16:38:13.082Z,5.78
2023-04-19T16:40:40.330Z,7.05
2023-04-19T16:43:07.721Z,6.25
2023-04-19T16:45:35.023Z,6.00
2023-04-19T16:48:02.407Z,5.80
2023-04-19T16:50:29.955Z,6.18
2023-04-19T16:52:57.324Z,5.90
2023-04-19T16:55:24.575Z,6.30
2023-04-19T16:57:53.864Z,7.13
2023-04-19T17:00:21.999Z,5.28
2023-04-19T17:02:49.484Z,6.72
2023-04-19T17:05:16.807Z,6.38
2023-04-19T17:07:44.080Z,9.07
2023-04-19T17:10:11.855Z,6.88
2023-04-19T17:12:39.182Z,8.95
2023-04-19T17:15:06.794Z,7.88
2023-04-19T17:17:34.103Z,8.05
2023-04-19T17:20:01.701Z,7.65
2023-04-19T17:22:32.130Z,8.57
2023-04-19T17:25:00.477Z,9.73
2023-04-19T17:27:27.861Z,9.13
2023-04-19T17:29:56.503Z,8.95
2023-04-19T17:32:23.912Z,7.40
2023-04-19T17:34:51.520Z,7.13
2023-04-19T17:37:19.053Z,6.90
2023-04-19T17:39:47.860Z,6.65
2023-04-19T17:42:15.134Z,6.47
2023-04-19T17:44:42.467Z,7.18
2023-04-19T17:47:09.726Z,7.38
2023-04-19T17:49:36.998Z,8.05
2023-04-19T17:52:04.589Z,7.85
2023-04-19T17:54:31.866Z,7.65
2023-04-19T17:57:02.721Z,7.40
2023-04-19T17:59:30.079Z,8.93
2023-04-19T18:01:57.475Z,9.68
2023-04-19T18:04:24.940Z,8.68
2023-04-19T18:06:52.288Z,10.68
2023-04-19T18:09:20.209Z,10.65
2023-04-19T18:11:48.009Z,11.85
2023-04-19T18:14:15.544Z,11.45
2023-04-19T18:16:42.994Z,14.10
2023-04-19T18:19:10.618Z,14.07
2023-04-19T18:21:38.015Z,15.60
2023-04-19T18:24:05.840Z,14.90
2023-04-19T18:26:41.001Z,14.50
2023-04-19T18:29:08.411Z,10.93
2023-04-19T18:31:35.768Z,9.18
2023-04-19T18:34:03.216Z,11.52
2023-04-19T18:36:30.460Z,9.25
2023-04-19T18:38:57.814Z,9.50
2023-04-19T18:41:25.306Z,9.35
2023-04-19T18:44:24.919Z,10.57
2023-04-19T18:46:42.494Z,9.88
2023-04-19T18:49:10.310Z,10.32
2023-04-19T18:51:38.467Z,10.18
2023-04-19T18:54:05.715Z,9.32
2023-04-19T18:57:11.005Z,9.40
2023-04-19T18:59:20.318Z,9.10
2023-04-19T19:01:48.120Z,8.43
2023-04-19T19:04:42.799Z,9.20
2023-04-19T19:07:27.390Z,8.98
2023-04-19T19:09:56.747Z,9.95
2023-04-19T19:12:24.484Z,9.02
2023-04-19T19:14:52.747Z,7.43
2023-04-19T19:17:19.938Z,8.35
2023-04-19T19:19:47.194Z,9.40
2023-04-19T19:22:26.194Z,10.23
2023-04-19T19:24:56.892Z,10.00
2023-04-19T19:27:24.520Z,11.43
2023-04-19T19:29:51.862Z,9.85
2023-04-19T19:32:19.657Z,10.30
2023-04-19T19:37:19.558Z,8.50
2023-04-19T19:39:47.525Z,7.55
2023-04-19T19:42:18.641Z,7.38
2023-04-19T19:44:46.237Z,9.13
2023-04-19T19:47:16.353Z,9.50
2023-04-19T19:50:05.845Z,8.85
2023-04-19T19:52:34.251Z,8.18
2023-04-19T19:55:01.662Z,7.45
2023-04-19T20:02:54.028Z,8.80
2023-04-19T20:05:23.544Z,9.00
2023-04-19T20:10:21.477Z,8.48
2023-04-19T20:12:48.734Z,8.50
2023-04-19T20:15:16.020Z,7.25
2023-04-19T20:17:43.897Z,7.22
2023-04-19T20:20:11.857Z,7.80
2023-04-19T20:22:39.307Z,7.07
2023-04-19T20:25:06.895Z,7.18
2023-04-19T20:27:34.087Z,7.72
2023-04-19T20:30:01.710Z,7.03
2023-04-19T20:32:32.759Z,7.00
2023-04-19T20:35:00.211Z,6.68
2023-04-19T20:37:27.678Z,6.82
2023-04-19T20:39:57.949Z,7.35
2023-04-19T20:42:25.502Z,8.32
2023-04-19T20:44:52.946Z,6.65
2023-04-19T20:47:20.566Z,6.50
2023-04-19T20:49:47.725Z,6.70
2023-04-19T20:52:15.065Z,7.13
2023-04-19T20:54:42.460Z,6.50
2023-04-19T20:57:10.081Z,6.03
2023-04-19T20:59:37.531Z,6.55
2023-04-19T21:02:05.244Z,6.28
2023-04-19T21:04:33.266Z,5.90
2023-04-19T21:07:01.097Z,6.70
2023-04-19T21:09:28.694Z,5.95
2023-04-19T21:11:55.838Z,6.88
2023-04-19T21:14:23.012Z,5.38
2023-04-19T21:16:50.425Z,6.15
2023-04-19T21:19:17.874Z,6.15
2023-04-19T21:21:45.450Z,4.97
2023-04-19T21:24:12.597Z,4.80
2023-04-19T21:26:39.873Z,5.68
2023-04-19T21:29:07.074Z,5.75
2023-04-19T21:31:34.272Z,6.32
2023-04-19T21:34:02.373Z,6.32
2023-04-19T21:36:29.703Z,5.78
2023-04-19T21:38:56.903Z,5.93
2023-04-19T21:41:24.467Z,5.68
2023-04-19T21:43:51.737Z,5.78
2023-04-19T21:46:19.064Z,5.95
2023-04-19T21:48:46.465Z,6.40
2023-04-19T21:51:14.250Z,5.90
2023-04-19T21:53:41.618Z,5.50
2023-04-19T21:56:09.178Z,5.93
2023-04-19T21:58:36.779Z,6.32
2023-04-19T22:01:04.181Z,6.40
2023-04-19T22:03:32.087Z,6.05
2023-04-19T22:06:01.977Z,6.03
2023-04-19T22:08:31.484Z,5.93
2023-04-19T22:11:00.498Z,6.20
2023-04-19T22:13:28.504Z,6.55
2023-04-19T22:15:57.265Z,6.05
2023-04-19T22:18:24.794Z,6.30
2023-04-19T22:20:53.264Z,6.15
2023-04-19T22:23:20.658Z,6.55
2023-04-19T22:25:47.967Z,7.07
2023-04-19T22:28:15.172Z,7.15
2023-04-19T22:30:42.572Z,7.72
2023-04-19T22:33:09.927Z,7.22
2023-04-19T22:35:37.202Z,8.00
2023-04-19T22:38:04.466Z,7.72
2023-04-19T22:40:31.618Z,6.90
2023-04-19T22:42:59.039Z,7.07
2023-04-19T22:45:26.206Z,8.40
2023-04-19T22:47:53.678Z,9.50
2023-04-19T22:50:22.212Z,9.38
2023-04-19T22:52:50.111Z,10.05
2023-04-19T22:55:17.433Z,8.77
2023-04-19T22:57:44.922Z,9.32
2023-04-19T23:00:12.695Z,8.90
2023-04-19T23:02:40.395Z,8.63
2023-04-19T23:05:08.018Z,8.38
2023-04-19T23:07:35.531Z,7.55
2023-04-19T23:10:03.438Z,8.73
2023-04-19T23:12:33.613Z,8.30
2023-04-19T23:15:02.083Z,8.63
2023-04-19T23:17:33.201Z,8.50
2023-04-19T23:20:00.545Z,8.23
2023-04-19T23:22:27.639Z,8.60
2023-04-19T23:24:54.873Z,9.32
2023-04-19T23:27:22.116Z,8.57
2023-04-19T23:29:49.420Z,8.88
2023-04-19T23:32:18.250Z,9.38
2023-04-19T23:34:45.765Z,8.90
2023-04-19T23:37:13.786Z,9.25
2023-04-19T23:39:41.136Z,8.85
2023-04-19T23:42:08.375Z,8.85
2023-04-19T23:44:36.183Z,8.88
2023-04-19T23:47:03.598Z,9.35
2023-04-19T23:49:31.744Z,9.60
2023-04-19T23:51:58.945Z,9.00
2023-04-19T23:54:26.439Z,9.63
2023-04-19T23:56:54.013Z,8.20
2023-04-19T23:59:21.453Z,8.50
